sensor_id;sensor_type;location;lat;lon;timestamp;P1;P2;P0
49708;PMS5003;35601;55.902;13.606;2024-02-21T00:01:55;30;26;
49708;PMS5003;35601;55.902;13.606;2024-02-21T00:04:21;32;29;
49708;PMS5003;35601;55.902;13.606;2024-02-21T00:06:46;38;29;
49708;PMS5003;35601;55.902;13.606;2024-02-21T00:09:12;23;20;
49708;PMS5003;35601;55.902;13.606;2024-02-21T00:11:37;25;23;
49708;PMS5003;35601;55.902;13.606;2024-02-21T00:14:02;28;23;
49708;PMS5003;35601;55.902;13.606;2024-02-21T00:16:28;37;30;
49708;PMS5003;35601;55.902;13.606;2024-02-21T00:18:53;29;25;
49708;PMS5003;35601;55.902;13.606;2024-02-21T00:21:18;26;22;
49708;PMS5003;35601;55.902;13.606;2024-02-21T00:23:44;32;25;
49708;PMS5003;35601;55.902;13.606;2024-02-21T00:26:09;27;24;
49708;PMS5003;35601;55.902;13.606;2024-02-21T00:28:35;33;27;
49708;PMS5003;35601;55.902;13.606;2024-02-21T00:31:00;42;30;
49708;PMS5003;35601;55.902;13.606;2024-02-21T00:33:27;31;28;
49708;PMS5003;35601;55.902;13.606;2024-02-21T00:35:51;41;33;
49708;PMS5003;35601;55.902;13.606;2024-02-21T00:38:17;33;28;
49708;PMS5003;35601;55.902;13.606;2024-02-21T00:40:42;30;28;
49708;PMS5003;35601;55.902;13.606;2024-02-21T00:43:08;44;34;
49708;PMS5003;35601;55.902;13.606;2024-02-21T00:45:34;42;34;
49708;PMS5003;35601;55.902;13.606;2024-02-21T00:47:59;42;28;
49708;PMS5003;35601;55.902;13.606;2024-02-21T00:50:25;47;32;
49708;PMS5003;35601;55.902;13.606;2024-02-21T00:52:51;32;29;
49708;PMS5003;35601;55.902;13.606;2024-02-21T00:55:16;30;27;
49708;PMS5003;35601;55.902;13.606;2024-02-21T00:57:42;41;34;
49708;PMS5003;35601;55.902;13.606;2024-02-21T01:00:07;46;35;
49708;PMS5003;35601;55.902;13.606;2024-02-21T01:02:32;39;33;
49708;PMS5003;35601;55.902;13.606;2024-02-21T01:04:58;35;24;
49708;PMS5003;35601;55.902;13.606;2024-02-21T01:07:24;46;37;
49708;PMS5003;35601;55.902;13.606;2024-02-21T01:09:49;45;36;
49708;PMS5003;35601;55.902;13.606;2024-02-21T01:12:14;43;33;
49708;PMS5003;35601;55.902;13.606;2024-02-21T01:14:39;44;35;
49708;PMS5003;35601;55.902;13.606;2024-02-21T01:17:05;43;36;
49708;PMS5003;35601;55.902;13.606;2024-02-21T01:19:30;42;31;
49708;PMS5003;35601;55.902;13.606;2024-02-21T01:21:56;49;38;
49708;PMS5003;35601;55.902;13.606;2024-02-21T01:24:22;39;29;
49708;PMS5003;35601;55.902;13.606;2024-02-21T01:26:47;38;32;
49708;PMS5003;35601;55.902;13.606;2024-02-21T01:29:13;41;35;
49708;PMS5003;35601;55.902;13.606;2024-02-21T01:31:38;44;30;
49708;PMS5003;35601;55.902;13.606;2024-02-21T01:34:03;41;30;
49708;PMS5003;35601;55.902;13.606;2024-02-21T01:36:29;27;25;
49708;PMS5003;35601;55.902;13.606;2024-02-21T01:38:54;34;29;
49708;PMS5003;35601;55.902;13.606;2024-02-21T01:41:19;41;32;
49708;PMS5003;35601;55.902;13.606;2024-02-21T01:43:45;29;23;
49708;PMS5003;35601;55.902;13.606;2024-02-21T01:46:11;31;26;
49708;PMS5003;35601;55.902;13.606;2024-02-21T01:48:36;27;27;
49708;PMS5003;35601;55.902;13.606;2024-02-21T01:51:01;33;24;
49708;PMS5003;35601;55.902;13.606;2024-02-21T01:53:27;37;30;
49708;PMS5003;35601;55.902;13.606;2024-02-21T01:55:52;32;26;
49708;PMS5003;35601;55.902;13.606;2024-02-21T01:58:17;41;32;
49708;PMS5003;35601;55.902;13.606;2024-02-21T02:00:43;20;19;
49708;PMS5003;35601;55.902;13.606;2024-02-21T02:03:09;35;31;
49708;PMS5003;35601;55.902;13.606;2024-02-21T02:05:34;38;29;
49708;PMS5003;35601;55.902;13.606;2024-02-21T02:07:59;28;24;
49708;PMS5003;35601;55.902;13.606;2024-02-21T02:10:25;37;32;
49708;PMS5003;35601;55.902;13.606;2024-02-21T02:12:50;36;32;
49708;PMS5003;35601;55.902;13.606;2024-02-21T02:15:15;36;28;
49708;PMS5003;35601;55.902;13.606;2024-02-21T02:17:41;37;32;
49708;PMS5003;35601;55.902;13.606;2024-02-21T02:20:07;33;30;
49708;PMS5003;35601;55.902;13.606;2024-02-21T02:22:33;38;30;
49708;PMS5003;35601;55.902;13.606;2024-02-21T02:24:58;40;29;
49708;PMS5003;35601;55.902;13.606;2024-02-21T02:27:24;37;32;
49708;PMS5003;35601;55.902;13.606;2024-02-21T02:29:49;45;38;
49708;PMS5003;35601;55.902;13.606;2024-02-21T02:32:14;42;38;
49708;PMS5003;35601;55.902;13.606;2024-02-21T02:34:40;41;38;
49708;PMS5003;35601;55.902;13.606;2024-02-21T02:37:05;39;33;
49708;PMS5003;35601;55.902;13.606;2024-02-21T02:39:31;32;29;
49708;PMS5003;35601;55.902;13.606;2024-02-21T02:41:57;34;32;
49708;PMS5003;35601;55.902;13.606;2024-02-21T02:44:23;42;36;
49708;PMS5003;35601;55.902;13.606;2024-02-21T02:46:48;41;34;
49708;PMS5003;35601;55.902;13.606;2024-02-21T02:49:13;42;35;
49708;PMS5003;35601;55.902;13.606;2024-02-21T02:51:41;37;33;
49708;PMS5003;35601;55.902;13.606;2024-02-21T02:54:04;36;32;
49708;PMS5003;35601;55.902;13.606;2024-02-21T02:56:30;52;42;
49708;PMS5003;35601;55.902;13.606;2024-02-21T02:58:56;50;40;
49708;PMS5003;35601;55.902;13.606;2024-02-21T03:01:22;46;33;
49708;PMS5003;35601;55.902;13.606;2024-02-21T03:03:47;42;38;
49708;PMS5003;35601;55.902;13.606;2024-02-21T03:06:12;37;33;
49708;PMS5003;35601;55.902;13.606;2024-02-21T03:08:38;43;36;
49708;PMS5003;35601;55.902;13.606;2024-02-21T03:11:03;44;34;
49708;PMS5003;35601;55.902;13.606;2024-02-21T03:13:29;47;40;
49708;PMS5003;35601;55.902;13.606;2024-02-21T03:15:54;38;33;
49708;PMS5003;35601;55.902;13.606;2024-02-21T03:18:19;48;39;
49708;PMS5003;35601;55.902;13.606;2024-02-21T03:20:44;44;38;
49708;PMS5003;35601;55.902;13.606;2024-02-21T03:23:10;46;40;
49708;PMS5003;35601;55.902;13.606;2024-02-21T03:25:35;44;30;
49708;PMS5003;35601;55.902;13.606;2024-02-21T03:28:00;56;44;
49708;PMS5003;35601;55.902;13.606;2024-02-21T03:30:26;53;43;
49708;PMS5003;35601;55.902;13.606;2024-02-21T03:32:51;50;39;
49708;PMS5003;35601;55.902;13.606;2024-02-21T03:35:16;50;44;
49708;PMS5003;35601;55.902;13.606;2024-02-21T03:37:41;46;42;
49708;PMS5003;35601;55.902;13.606;2024-02-21T03:40:08;57;45;
49708;PMS5003;35601;55.902;13.606;2024-02-21T03:42:33;61;48;
49708;PMS5003;35601;55.902;13.606;2024-02-21T03:44:58;54;40;
49708;PMS5003;35601;55.902;13.606;2024-02-21T03:47:23;48;42;
49708;PMS5003;35601;55.902;13.606;2024-02-21T03:49:49;45;38;
49708;PMS5003;35601;55.902;13.606;2024-02-21T03:52:14;52;44;
49708;PMS5003;35601;55.902;13.606;2024-02-21T03:54:40;45;39;
49708;PMS5003;35601;55.902;13.606;2024-02-21T03:57:05;45;38;
49708;PMS5003;35601;55.902;13.606;2024-02-21T03:59:31;40;34;
49708;PMS5003;35601;55.902;13.606;2024-02-21T04:01:56;47;38;
49708;PMS5003;35601;55.902;13.606;2024-02-21T04:04:22;56;37;
49708;PMS5003;35601;55.902;13.606;2024-02-21T04:06:48;50;38;
49708;PMS5003;35601;55.902;13.606;2024-02-21T04:09:14;41;35;
49708;PMS5003;35601;55.902;13.606;2024-02-21T04:11:39;37;32;
49708;PMS5003;35601;55.902;13.606;2024-02-21T04:14:04;35;33;
49708;PMS5003;35601;55.902;13.606;2024-02-21T04:16:30;33;33;
49708;PMS5003;35601;55.902;13.606;2024-02-21T04:18:55;29;29;
49708;PMS5003;35601;55.902;13.606;2024-02-21T04:21:20;30;27;
49708;PMS5003;35601;55.902;13.606;2024-02-21T04:23:46;32;27;
49708;PMS5003;35601;55.902;13.606;2024-02-21T04:26:11;28;22;
49708;PMS5003;35601;55.902;13.606;2024-02-21T04:28:37;35;28;
49708;PMS5003;35601;55.902;13.606;2024-02-21T04:31:02;38;31;
49708;PMS5003;35601;55.902;13.606;2024-02-21T04:33:27;38;31;
49708;PMS5003;35601;55.902;13.606;2024-02-21T04:35:52;34;27;
49708;PMS5003;35601;55.902;13.606;2024-02-21T04:38:18;41;32;
49708;PMS5003;35601;55.902;13.606;2024-02-21T04:40:44;35;29;
49708;PMS5003;35601;55.902;13.606;2024-02-21T04:43:10;34;32;
49708;PMS5003;35601;55.902;13.606;2024-02-21T04:45:35;27;24;
49708;PMS5003;35601;55.902;13.606;2024-02-21T04:48:01;30;26;
49708;PMS5003;35601;55.902;13.606;2024-02-21T04:50:26;37;29;
49708;PMS5003;35601;55.902;13.606;2024-02-21T04:52:51;30;24;
49708;PMS5003;35601;55.902;13.606;2024-02-21T04:55:17;32;26;
49708;PMS5003;35601;55.902;13.606;2024-02-21T04:57:43;37;31;
49708;PMS5003;35601;55.902;13.606;2024-02-21T05:00:08;31;25;
49708;PMS5003;35601;55.902;13.606;2024-02-21T05:02:33;28;24;
49708;PMS5003;35601;55.902;13.606;2024-02-21T05:04:59;28;23;
49708;PMS5003;35601;55.902;13.606;2024-02-21T05:07:24;22;20;
49708;PMS5003;35601;55.902;13.606;2024-02-21T05:09:50;21;19;
49708;PMS5003;35601;55.902;13.606;2024-02-21T05:12:16;23;20;
49708;PMS5003;35601;55.902;13.606;2024-02-21T05:14:42;22;17;
49708;PMS5003;35601;55.902;13.606;2024-02-21T05:17:07;23;18;
49708;PMS5003;35601;55.902;13.606;2024-02-21T05:19:32;24;18;
49708;PMS5003;35601;55.902;13.606;2024-02-21T05:21:58;19;17;
49708;PMS5003;35601;55.902;13.606;2024-02-21T05:24:22;19;18;
49708;PMS5003;35601;55.902;13.606;2024-02-21T05:26:48;14;12;
49708;PMS5003;35601;55.902;13.606;2024-02-21T05:29:13;14;14;
49708;PMS5003;35601;55.902;13.606;2024-02-21T05:34:04;20;16;
49708;PMS5003;35601;55.902;13.606;2024-02-21T05:36:29;15;14;
49708;PMS5003;35601;55.902;13.606;2024-02-21T05:38:55;19;15;
49708;PMS5003;35601;55.902;13.606;2024-02-21T05:41:21;15;13;
49708;PMS5003;35601;55.902;13.606;2024-02-21T05:43:46;14;12;
49708;PMS5003;35601;55.902;13.606;2024-02-21T05:46:12;17;13;
49708;PMS5003;35601;55.902;13.606;2024-02-21T05:48:38;12;12;
49708;PMS5003;35601;55.902;13.606;2024-02-21T05:51:04;17;15;
49708;PMS5003;35601;55.902;13.606;2024-02-21T05:53:29;14;13;
49708;PMS5003;35601;55.902;13.606;2024-02-21T05:55:54;13;13;
49708;PMS5003;35601;55.902;13.606;2024-02-21T05:58:20;15;13;
49708;PMS5003;35601;55.902;13.606;2024-02-21T06:00:46;12;11;
49708;PMS5003;35601;55.902;13.606;2024-02-21T06:03:11;13;13;
49708;PMS5003;35601;55.902;13.606;2024-02-21T06:05:37;12;11;
49708;PMS5003;35601;55.902;13.606;2024-02-21T06:08:03;16;13;
49708;PMS5003;35601;55.902;13.606;2024-02-21T06:10:29;13;11;
49708;PMS5003;35601;55.902;13.606;2024-02-21T06:12:54;12;10;
49708;PMS5003;35601;55.902;13.606;2024-02-21T06:15:20;13;9;
49708;PMS5003;35601;55.902;13.606;2024-02-21T06:17:45;13;10;
49708;PMS5003;35601;55.902;13.606;2024-02-21T06:20:11;11;9;
49708;PMS5003;35601;55.902;13.606;2024-02-21T06:22:36;13;13;
49708;PMS5003;35601;55.902;13.606;2024-02-21T06:25:01;9;9;
49708;PMS5003;35601;55.902;13.606;2024-02-21T06:27:26;12;11;
49708;PMS5003;35601;55.902;13.606;2024-02-21T06:29:52;8;8;
49708;PMS5003;35601;55.902;13.606;2024-02-21T06:32:17;10;10;
49708;PMS5003;35601;55.902;13.606;2024-02-21T06:34:43;10;8;
49708;PMS5003;35601;55.902;13.606;2024-02-21T06:37:08;10;9;
49708;PMS5003;35601;55.902;13.606;2024-02-21T06:39:34;9;8;
49708;PMS5003;35601;55.902;13.606;2024-02-21T06:41:59;8;8;
49708;PMS5003;35601;55.902;13.606;2024-02-21T06:44:24;9;8;
49708;PMS5003;35601;55.902;13.606;2024-02-21T06:46:50;10;9;
49708;PMS5003;35601;55.902;13.606;2024-02-21T06:49:15;7;6;
49708;PMS5003;35601;55.902;13.606;2024-02-21T06:51:40;6;6;
49708;PMS5003;35601;55.902;13.606;2024-02-21T06:54:05;5;5;
49708;PMS5003;35601;55.902;13.606;2024-02-21T06:56:31;6;6;
49708;PMS5003;35601;55.902;13.606;2024-02-21T06:58:56;8;6;
49708;PMS5003;35601;55.902;13.606;2024-02-21T07:01:21;8;6;
49708;PMS5003;35601;55.902;13.606;2024-02-21T07:03:46;7;7;
49708;PMS5003;35601;55.902;13.606;2024-02-21T07:06:12;8;7;
49708;PMS5003;35601;55.902;13.606;2024-02-21T07:08:37;5;5;
49708;PMS5003;35601;55.902;13.606;2024-02-21T07:11:03;8;7;
49708;PMS5003;35601;55.902;13.606;2024-02-21T07:13:29;9;7;
49708;PMS5003;35601;55.902;13.606;2024-02-21T07:15:54;6;6;
49708;PMS5003;35601;55.902;13.606;2024-02-21T07:18:19;6;6;
49708;PMS5003;35601;55.902;13.606;2024-02-21T07:20:44;5;5;
49708;PMS5003;35601;55.902;13.606;2024-02-21T07:23:10;6;5;
49708;PMS5003;35601;55.902;13.606;2024-02-21T07:25:35;5;4;
49708;PMS5003;35601;55.902;13.606;2024-02-21T07:28:00;6;3;
49708;PMS5003;35601;55.902;13.606;2024-02-21T07:30:25;9;7;
49708;PMS5003;35601;55.902;13.606;2024-02-21T07:32:51;6;4;
49708;PMS5003;35601;55.902;13.606;2024-02-21T07:35:16;4;4;
49708;PMS5003;35601;55.902;13.606;2024-02-21T07:37:41;6;3;
49708;PMS5003;35601;55.902;13.606;2024-02-21T07:40:11;5;5;
49708;PMS5003;35601;55.902;13.606;2024-02-21T07:42:32;4;3;
49708;PMS5003;35601;55.902;13.606;2024-02-21T07:44:58;4;3;
49708;PMS5003;35601;55.902;13.606;2024-02-21T07:47:24;6;4;
49708;PMS5003;35601;55.902;13.606;2024-02-21T07:49:49;7;3;
49708;PMS5003;35601;55.902;13.606;2024-02-21T07:52:14;5;3;
49708;PMS5003;35601;55.902;13.606;2024-02-21T07:54:40;3;2;
49708;PMS5003;35601;55.902;13.606;2024-02-21T07:57:05;5;3;
49708;PMS5003;35601;55.902;13.606;2024-02-21T07:59:31;5;4;
49708;PMS5003;35601;55.902;13.606;2024-02-21T08:01:56;6;4;
49708;PMS5003;35601;55.902;13.606;2024-02-21T08:04:21;7;4;
49708;PMS5003;35601;55.902;13.606;2024-02-21T08:06:50;3;3;
49708;PMS5003;35601;55.902;13.606;2024-02-21T08:09:12;6;3;
49708;PMS5003;35601;55.902;13.606;2024-02-21T08:11:37;4;4;
49708;PMS5003;35601;55.902;13.606;2024-02-21T08:14:02;6;4;
49708;PMS5003;35601;55.902;13.606;2024-02-21T08:16:28;6;3;
49708;PMS5003;35601;55.902;13.606;2024-02-21T08:18:53;7;5;
49708;PMS5003;35601;55.902;13.606;2024-02-21T08:21:18;4;3;
49708;PMS5003;35601;55.902;13.606;2024-02-21T08:23:43;2;2;
49708;PMS5003;35601;55.902;13.606;2024-02-21T08:26:09;7;4;
49708;PMS5003;35601;55.902;13.606;2024-02-21T08:28:34;3;2;
49708;PMS5003;35601;55.902;13.606;2024-02-21T08:31:00;4;3;
49708;PMS5003;35601;55.902;13.606;2024-02-21T08:33:25;2;1;
49708;PMS5003;35601;55.902;13.606;2024-02-21T08:35:51;7;1;
49708;PMS5003;35601;55.902;13.606;2024-02-21T08:38:16;3;3;
49708;PMS5003;35601;55.902;13.606;2024-02-21T08:40:41;4;3;
49708;PMS5003;35601;55.902;13.606;2024-02-21T08:43:07;5;3;
49708;PMS5003;35601;55.902;13.606;2024-02-21T08:45:32;4;3;
49708;PMS5003;35601;55.902;13.606;2024-02-21T08:47:58;3;3;
49708;PMS5003;35601;55.902;13.606;2024-02-21T08:50:23;4;3;
49708;PMS5003;35601;55.902;13.606;2024-02-21T08:52:48;4;2;
49708;PMS5003;35601;55.902;13.606;2024-02-21T08:55:14;7;2;
49708;PMS5003;35601;55.902;13.606;2024-02-21T08:57:39;5;3;
49708;PMS5003;35601;55.902;13.606;2024-02-21T09:00:05;3;1;
49708;PMS5003;35601;55.902;13.606;2024-02-21T09:02:29;3;3;
49708;PMS5003;35601;55.902;13.606;2024-02-21T09:04:54;4;2;
49708;PMS5003;35601;55.902;13.606;2024-02-21T09:07:20;4;2;
49708;PMS5003;35601;55.902;13.606;2024-02-21T09:09:45;2;2;
49708;PMS5003;35601;55.902;13.606;2024-02-21T09:12:10;2;1;
49708;PMS5003;35601;55.902;13.606;2024-02-21T09:14:36;1;1;
49708;PMS5003;35601;55.902;13.606;2024-02-21T09:17:01;1;1;
49708;PMS5003;35601;55.902;13.606;2024-02-21T09:19:26;1;1;
49708;PMS5003;35601;55.902;13.606;2024-02-21T09:21:51;3;2;
49708;PMS5003;35601;55.902;13.606;2024-02-21T09:24:17;2;2;
49708;PMS5003;35601;55.902;13.606;2024-02-21T09:26:43;3;1;
49708;PMS5003;35601;55.902;13.606;2024-02-21T09:29:08;1;1;
49708;PMS5003;35601;55.902;13.606;2024-02-21T09:31:33;2;2;
49708;PMS5003;35601;55.902;13.606;2024-02-21T09:33:58;3;2;
49708;PMS5003;35601;55.902;13.606;2024-02-21T09:36:24;3;1;
49708;PMS5003;35601;55.902;13.606;2024-02-21T09:38:49;1;1;
49708;PMS5003;35601;55.902;13.606;2024-02-21T09:41:16;1;1;
49708;PMS5003;35601;55.902;13.606;2024-02-21T09:43:40;4;4;
49708;PMS5003;35601;55.902;13.606;2024-02-21T09:46:06;3;3;
49708;PMS5003;35601;55.902;13.606;2024-02-21T09:48:35;4;3;
49708;PMS5003;35601;55.902;13.606;2024-02-21T09:50:56;11;5;
49708;PMS5003;35601;55.902;13.606;2024-02-21T09:53:22;4;1;
49708;PMS5003;35601;55.902;13.606;2024-02-21T09:55:47;6;2;
49708;PMS5003;35601;55.902;13.606;2024-02-21T09:58:12;2;2;
49708;PMS5003;35601;55.902;13.606;2024-02-21T10:00:38;1;1;
49708;PMS5003;35601;55.902;13.606;2024-02-21T10:03:03;2;2;
49708;PMS5003;35601;55.902;13.606;2024-02-21T10:05:29;4;3;
49708;PMS5003;35601;55.902;13.606;2024-02-21T10:07:54;3;1;
49708;PMS5003;35601;55.902;13.606;2024-02-21T10:10:20;0;0;
49708;PMS5003;35601;55.902;13.606;2024-02-21T10:12:47;2;2;
49708;PMS5003;35601;55.902;13.606;2024-02-21T10:15:10;0;0;
49708;PMS5003;35601;55.902;13.606;2024-02-21T10:17:35;2;1;
49708;PMS5003;35601;55.902;13.606;2024-02-21T10:20:07;1;1;
49708;PMS5003;35601;55.902;13.606;2024-02-21T10:22:26;2;0;
49708;PMS5003;35601;55.902;13.606;2024-02-21T10:24:51;1;1;
49708;PMS5003;35601;55.902;13.606;2024-02-21T10:27:17;1;1;
49708;PMS5003;35601;55.902;13.606;2024-02-21T10:29:42;3;2;
49708;PMS5003;35601;55.902;13.606;2024-02-21T10:32:08;0;0;
49708;PMS5003;35601;55.902;13.606;2024-02-21T10:34:32;2;1;
49708;PMS5003;35601;55.902;13.606;2024-02-21T10:36:59;0;0;
49708;PMS5003;35601;55.902;13.606;2024-02-21T10:39:23;0;0;
49708;PMS5003;35601;55.902;13.606;2024-02-21T10:41:48;2;0;
49708;PMS5003;35601;55.902;13.606;2024-02-21T10:44:13;1;1;
49708;PMS5003;35601;55.902;13.606;2024-02-21T10:46:39;0;0;
49708;PMS5003;35601;55.902;13.606;2024-02-21T10:49:07;4;1;
49708;PMS5003;35601;55.902;13.606;2024-02-21T10:51:30;1;1;
49708;PMS5003;35601;55.902;13.606;2024-02-21T10:53:57;0;0;
49708;PMS5003;35601;55.902;13.606;2024-02-21T10:56:22;3;0;
49708;PMS5003;35601;55.902;13.606;2024-02-21T10:58:45;2;1;
49708;PMS5003;35601;55.902;13.606;2024-02-21T11:01:10;0;0;
49708;PMS5003;35601;55.902;13.606;2024-02-21T11:03:36;0;0;
49708;PMS5003;35601;55.902;13.606;2024-02-21T11:06:05;3;0;
49708;PMS5003;35601;55.902;13.606;2024-02-21T11:08:26;3;0;
49708;PMS5003;35601;55.902;13.606;2024-02-21T11:10:56;1;0;
49708;PMS5003;35601;55.902;13.606;2024-02-21T11:13:17;2;1;
49708;PMS5003;35601;55.902;13.606;2024-02-21T11:15:42;0;0;
49708;PMS5003;35601;55.902;13.606;2024-02-21T11:18:07;1;1;
49708;PMS5003;35601;55.902;13.606;2024-02-21T11:20:32;1;1;
49708;PMS5003;35601;55.902;13.606;2024-02-21T11:22:58;3;2;
49708;PMS5003;35601;55.902;13.606;2024-02-21T11:25:23;1;1;
49708;PMS5003;35601;55.902;13.606;2024-02-21T11:27:48;1;1;
49708;PMS5003;35601;55.902;13.606;2024-02-21T11:30:13;2;2;
49708;PMS5003;35601;55.902;13.606;2024-02-21T11:32:39;2;1;
49708;PMS5003;35601;55.902;13.606;2024-02-21T11:35:04;6;3;
49708;PMS5003;35601;55.902;13.606;2024-02-21T11:37:29;3;3;
49708;PMS5003;35601;55.902;13.606;2024-02-21T11:39:55;4;4;
49708;PMS5003;35601;55.902;13.606;2024-02-21T11:42:20;5;3;
49708;PMS5003;35601;55.902;13.606;2024-02-21T11:44:45;5;4;
49708;PMS5003;35601;55.902;13.606;2024-02-21T11:47:11;6;3;
49708;PMS5003;35601;55.902;13.606;2024-02-21T11:49:36;2;2;
49708;PMS5003;35601;55.902;13.606;2024-02-21T11:52:02;2;1;
49708;PMS5003;35601;55.902;13.606;2024-02-21T11:54:26;6;4;
49708;PMS5003;35601;55.902;13.606;2024-02-21T11:56:52;3;3;
49708;PMS5003;35601;55.902;13.606;2024-02-21T11:59:17;3;1;
49708;PMS5003;35601;55.902;13.606;2024-02-21T12:01:42;4;2;
49708;PMS5003;35601;55.902;13.606;2024-02-21T12:04:07;2;2;
49708;PMS5003;35601;55.902;13.606;2024-02-21T12:06:33;3;2;
49708;PMS5003;35601;55.902;13.606;2024-02-21T12:08:58;6;3;
49708;PMS5003;35601;55.902;13.606;2024-02-21T12:11:23;2;2;
49708;PMS5003;35601;55.902;13.606;2024-02-21T12:16:15;8;4;
49708;PMS5003;35601;55.902;13.606;2024-02-21T12:18:40;4;2;
49708;PMS5003;35601;55.902;13.606;2024-02-21T12:21:05;5;1;
49708;PMS5003;35601;55.902;13.606;2024-02-21T12:23:30;3;3;
49708;PMS5003;35601;55.902;13.606;2024-02-21T12:25:55;3;3;
49708;PMS5003;35601;55.902;13.606;2024-02-21T12:28:21;3;3;
49708;PMS5003;35601;55.902;13.606;2024-02-21T12:30:46;7;4;
49708;PMS5003;35601;55.902;13.606;2024-02-21T12:33:11;5;4;
49708;PMS5003;35601;55.902;13.606;2024-02-21T12:35:36;8;4;
49708;PMS5003;35601;55.902;13.606;2024-02-21T12:38:02;7;6;
49708;PMS5003;35601;55.902;13.606;2024-02-21T12:40:27;5;5;
49708;PMS5003;35601;55.902;13.606;2024-02-21T12:42:53;6;2;
49708;PMS5003;35601;55.902;13.606;2024-02-21T12:45:18;3;3;
49708;PMS5003;35601;55.902;13.606;2024-02-21T12:47:43;5;3;
49708;PMS5003;35601;55.902;13.606;2024-02-21T12:50:09;5;3;
49708;PMS5003;35601;55.902;13.606;2024-02-21T12:52:34;5;3;
49708;PMS5003;35601;55.902;13.606;2024-02-21T12:54:59;2;1;
49708;PMS5003;35601;55.902;13.606;2024-02-21T12:57:24;5;3;
49708;PMS5003;35601;55.902;13.606;2024-02-21T12:59:50;3;3;
49708;PMS5003;35601;55.902;13.606;2024-02-21T13:02:15;6;4;
49708;PMS5003;35601;55.902;13.606;2024-02-21T13:04:41;7;5;
49708;PMS5003;35601;55.902;13.606;2024-02-21T13:07:06;5;3;
49708;PMS5003;35601;55.902;13.606;2024-02-21T13:09:31;5;4;
49708;PMS5003;35601;55.902;13.606;2024-02-21T13:11:57;6;3;
49708;PMS5003;35601;55.902;13.606;2024-02-21T13:14:23;6;4;
49708;PMS5003;35601;55.902;13.606;2024-02-21T13:16:48;5;5;
49708;PMS5003;35601;55.902;13.606;2024-02-21T13:19:13;5;4;
49708;PMS5003;35601;55.902;13.606;2024-02-21T13:21:38;4;2;
49708;PMS5003;35601;55.902;13.606;2024-02-21T13:24:04;3;3;
49708;PMS5003;35601;55.902;13.606;2024-02-21T13:26:29;6;3;
49708;PMS5003;35601;55.902;13.606;2024-02-21T13:28:55;5;2;
49708;PMS5003;35601;55.902;13.606;2024-02-21T13:31:20;3;2;
49708;PMS5003;35601;55.902;13.606;2024-02-21T13:33:45;2;2;
49708;PMS5003;35601;55.902;13.606;2024-02-21T13:36:10;7;3;
49708;PMS5003;35601;55.902;13.606;2024-02-21T13:38:36;1;1;
49708;PMS5003;35601;55.902;13.606;2024-02-21T13:41:01;1;1;
49708;PMS5003;35601;55.902;13.606;2024-02-21T13:43:26;2;2;
49708;PMS5003;35601;55.902;13.606;2024-02-21T13:45:55;3;3;
49708;PMS5003;35601;55.902;13.606;2024-02-21T13:48:17;5;4;
49708;PMS5003;35601;55.902;13.606;2024-02-21T13:50:42;3;1;
49708;PMS5003;35601;55.902;13.606;2024-02-21T13:53:07;2;2;
49708;PMS5003;35601;55.902;13.606;2024-02-21T13:55:32;2;2;
49708;PMS5003;35601;55.902;13.606;2024-02-21T13:57:58;2;1;
49708;PMS5003;35601;55.902;13.606;2024-02-21T14:00:23;6;4;
49708;PMS5003;35601;55.902;13.606;2024-02-21T14:02:49;5;3;
49708;PMS5003;35601;55.902;13.606;2024-02-21T14:05:14;5;3;
49708;PMS5003;35601;55.902;13.606;2024-02-21T14:07:39;3;2;
49708;PMS5003;35601;55.902;13.606;2024-02-21T14:10:05;6;2;
49708;PMS5003;35601;55.902;13.606;2024-02-21T14:12:30;6;3;
49708;PMS5003;35601;55.902;13.606;2024-02-21T14:14:55;4;2;
49708;PMS5003;35601;55.902;13.606;2024-02-21T14:17:21;9;7;
49708;PMS5003;35601;55.902;13.606;2024-02-21T14:19:46;1;1;
49708;PMS5003;35601;55.902;13.606;2024-02-21T14:22:11;6;3;
49708;PMS5003;35601;55.902;13.606;2024-02-21T14:24:37;5;2;
49708;PMS5003;35601;55.902;13.606;2024-02-21T14:27:02;4;1;
49708;PMS5003;35601;55.902;13.606;2024-02-21T14:29:28;4;2;
49708;PMS5003;35601;55.902;13.606;2024-02-21T14:31:53;7;5;
49708;PMS5003;35601;55.902;13.606;2024-02-21T14:34:18;6;3;
49708;PMS5003;35601;55.902;13.606;2024-02-21T14:36:43;8;2;
49708;PMS5003;35601;55.902;13.606;2024-02-21T14:39:09;3;2;
49708;PMS5003;35601;55.902;13.606;2024-02-21T14:41:34;2;2;
49708;PMS5003;35601;55.902;13.606;2024-02-21T14:43:59;6;2;
49708;PMS5003;35601;55.902;13.606;2024-02-21T14:46:24;6;4;
49708;PMS5003;35601;55.902;13.606;2024-02-21T14:48:50;1;1;
49708;PMS5003;35601;55.902;13.606;2024-02-21T14:51:15;0;0;
49708;PMS5003;35601;55.902;13.606;2024-02-21T14:53:40;3;3;
49708;PMS5003;35601;55.902;13.606;2024-02-21T14:56:06;3;1;
49708;PMS5003;35601;55.902;13.606;2024-02-21T14:58:31;3;3;
49708;PMS5003;35601;55.902;13.606;2024-02-21T15:00:56;3;1;
49708;PMS5003;35601;55.902;13.606;2024-02-21T15:03:21;3;2;
49708;PMS5003;35601;55.902;13.606;2024-02-21T15:05:47;2;2;
49708;PMS5003;35601;55.902;13.606;2024-02-21T15:08:12;7;5;
49708;PMS5003;35601;55.902;13.606;2024-02-21T15:10:37;6;3;
49708;PMS5003;35601;55.902;13.606;2024-02-21T15:13:03;5;5;
49708;PMS5003;35601;55.902;13.606;2024-02-21T15:15:27;3;1;
49708;PMS5003;35601;55.902;13.606;2024-02-21T15:17:53;1;1;
49708;PMS5003;35601;55.902;13.606;2024-02-21T15:20:18;5;2;
49708;PMS5003;35601;55.902;13.606;2024-02-21T15:22:43;3;3;
49708;PMS5003;35601;55.902;13.606;2024-02-21T15:25:09;2;2;
49708;PMS5003;35601;55.902;13.606;2024-02-21T15:27:34;12;3;
49708;PMS5003;35601;55.902;13.606;2024-02-21T15:30:01;3;3;
49708;PMS5003;35601;55.902;13.606;2024-02-21T15:32:25;2;2;
49708;PMS5003;35601;55.902;13.606;2024-02-21T15:34:51;4;3;
49708;PMS5003;35601;55.902;13.606;2024-02-21T15:37:16;5;3;
49708;PMS5003;35601;55.902;13.606;2024-02-21T15:39:41;5;2;
49708;PMS5003;35601;55.902;13.606;2024-02-21T15:42:07;6;3;
49708;PMS5003;35601;55.902;13.606;2024-02-21T15:44:32;5;3;
49708;PMS5003;35601;55.902;13.606;2024-02-21T15:46:57;6;3;
49708;PMS5003;35601;55.902;13.606;2024-02-21T15:49:22;8;5;
49708;PMS5003;35601;55.902;13.606;2024-02-21T15:51:47;29;24;
49708;PMS5003;35601;55.902;13.606;2024-02-21T15:54:13;6;6;
49708;PMS5003;35601;55.902;13.606;2024-02-21T15:56:39;14;9;
49708;PMS5003;35601;55.902;13.606;2024-02-21T15:59:05;11;8;
49708;PMS5003;35601;55.902;13.606;2024-02-21T16:01:30;15;13;
49708;PMS5003;35601;55.902;13.606;2024-02-21T16:03:56;17;12;
49708;PMS5003;35601;55.902;13.606;2024-02-21T16:06:21;16;15;
49708;PMS5003;35601;55.902;13.606;2024-02-21T16:08:47;13;11;
49708;PMS5003;35601;55.902;13.606;2024-02-21T16:11:13;17;13;
49708;PMS5003;35601;55.902;13.606;2024-02-21T16:13:38;12;8;